Volente, Texas
Current Conditions -  °F | °C
As of 12:35 AM on Friday 31 Oct 2014 (Local Time) from KRYW Reporting Station
Clear Clear  
Wind Chill: 67°   Ceiling: Unl
Heat Index: 67°   Visibility: 10mi
Dew Point: 58°   Wind: 6mph
Humidity: 73%   Direction: 40°NE
Pressure: 30.14"   Gusts: NA
Location:  30.558°N, 97.9247°W
Report Text: KRYW 310535Z AUTO 04005KT 10SM CLR 19/15 A3014 RMK AO2 LTG DSNT S AND W T01940145
Loading
Personal Weather Stations






























Interactive Weather Map
Tropical Storm Tracking
New forecast layout! Learn more

10-Day Weather Forecast

Advertisements
Track Severe Weather on mobile